createdAt,value
2023-05-01T00:00:35.934Z,2.75
2023-05-01T00:03:04.646Z,2.45
2023-05-01T00:05:33.115Z,5.40
2023-05-01T00:08:01.697Z,5.57
2023-05-01T00:10:30.408Z,5.30
2023-05-01T00:12:58.930Z,3.47
2023-05-01T00:15:27.478Z,3.88
2023-05-01T00:17:57.447Z,3.05
2023-05-01T00:20:28.588Z,3.20
2023-05-01T00:25:26.619Z,1.63
2023-05-01T00:27:55.164Z,3.35
2023-05-01T00:30:23.717Z,2.13
2023-05-01T00:32:52.160Z,3.03
2023-05-01T00:35:22.172Z,2.50
2023-05-01T00:37:50.905Z,2.80
2023-05-01T00:40:19.443Z,3.47
2023-05-01T00:42:47.931Z,4.07
2023-05-01T00:45:16.392Z,2.47
2023-05-01T00:47:44.939Z,3.03
2023-05-01T00:50:14.013Z,1.90
2023-05-01T00:52:44.182Z,2.55
2023-05-01T00:55:12.983Z,9.23
2023-05-01T00:57:41.679Z,3.42
2023-05-01T01:00:12.613Z,4.28
2023-05-01T01:02:41.385Z,3.88
2023-05-01T01:05:10.077Z,3.63
2023-05-01T01:07:47.957Z,3.88
2023-05-01T01:10:24.940Z,2.60
2023-05-01T01:13:00.135Z,3.65
2023-05-01T01:15:35.442Z,3.53
2023-05-01T01:18:11.594Z,3.58
2023-05-01T01:20:46.745Z,2.78
2023-05-01T01:23:54.728Z,4.68
2023-05-01T01:26:40.650Z,2.72
2023-05-01T01:29:45.363Z,3.60
2023-05-01T01:32:39.424Z,2.47
2023-05-01T01:35:14.579Z,4.90
2023-05-01T01:37:49.861Z,2.45
2023-05-01T01:40:21.768Z,3.45
2023-05-01T01:42:56.809Z,3.13
2023-05-01T01:45:31.496Z,2.17
2023-05-01T01:48:01.393Z,3.88
2023-05-01T01:50:33.576Z,3.50
2023-05-01T01:53:03.720Z,5.20
2023-05-01T01:55:35.210Z,4.30
2023-05-01T01:58:05.350Z,3.35
2023-05-01T02:00:35.964Z,3.08
2023-05-01T02:03:06.116Z,2.53
2023-05-01T02:05:37.634Z,4.00
2023-05-01T02:08:07.668Z,5.13
2023-05-01T02:10:37.798Z,3.10
2023-05-01T02:13:07.524Z,3.77
2023-05-01T02:15:36.483Z,3.08
2023-05-01T02:18:06.711Z,3.10
2023-05-01T02:20:39.061Z,5.47
2023-05-01T02:23:09.258Z,2.33
2023-05-01T02:25:41.326Z,3.73
2023-05-01T02:28:14.190Z,2.80
2023-05-01T02:30:42.829Z,2.97
2023-05-01T02:33:11.375Z,3.22
2023-05-01T02:35:43.086Z,3.38
2023-05-01T02:38:13.081Z,4.95
2023-05-01T02:40:44.042Z,5.22
2023-05-01T02:43:15.408Z,4.20
2023-05-01T02:45:46.318Z,3.95
2023-05-01T02:50:48.950Z,3.75
2023-05-01T02:56:04.841Z,3.72
2023-05-01T02:58:34.030Z,4.38
2023-05-01T03:01:02.806Z,4.25
2023-05-01T03:03:31.809Z,3.88
2023-05-01T03:06:03.394Z,7.07
2023-05-01T03:08:32.208Z,4.25
2023-05-01T03:11:00.689Z,5.18
2023-05-01T03:13:29.366Z,3.72
2023-05-01T03:15:58.546Z,4.47
2023-05-01T03:18:27.206Z,5.00
2023-05-01T03:20:57.175Z,3.90
2023-05-01T03:23:29.065Z,3.17
2023-05-01T03:25:57.778Z,4.10
2023-05-01T03:28:26.934Z,5.13
2023-05-01T03:30:55.775Z,3.38
2023-05-01T03:33:24.553Z,4.75
2023-05-01T03:36:02.326Z,5.03
2023-05-01T03:38:32.923Z,4.90
2023-05-01T03:41:13.460Z,8.25
2023-05-01T03:44:00.937Z,5.82
2023-05-01T03:46:36.767Z,9.10
2023-05-01T03:49:07.729Z,3.67
2023-05-01T03:51:43.430Z,4.10
2023-05-01T03:54:13.631Z,4.65
2023-05-01T03:57:14.952Z,5.43
2023-05-01T03:59:44.821Z,9.00
2023-05-01T04:02:14.250Z,4.30
2023-05-01T04:04:43.625Z,4.78
2023-05-01T04:07:12.447Z,7.15
2023-05-01T04:09:42.619Z,6.05
2023-05-01T04:12:11.417Z,5.43
2023-05-01T04:14:39.899Z,4.88
2023-05-01T04:17:08.565Z,5.57
2023-05-01T04:19:38.894Z,6.05
2023-05-01T04:22:07.870Z,5.80
2023-05-01T04:24:39.757Z,6.22
2023-05-01T04:27:10.021Z,3.88
2023-05-01T04:29:38.692Z,6.18
2023-05-01T04:32:07.573Z,5.35
2023-05-01T04:34:37.072Z,4.40
2023-05-01T04:37:08.000Z,6.25
2023-05-01T04:39:37.057Z,4.78
2023-05-01T04:42:06.353Z,3.92
2023-05-01T04:44:37.471Z,4.13
2023-05-01T04:47:07.279Z,5.68
2023-05-01T04:49:37.390Z,4.30
2023-05-01T04:52:06.270Z,4.28
2023-05-01T04:54:49.032Z,5.93
2023-05-01T04:57:17.831Z,2.97
2023-05-01T04:59:48.580Z,2.38
2023-05-01T05:02:17.255Z,3.25
2023-05-01T05:04:45.773Z,4.53
2023-05-01T05:07:14.617Z,5.15
2023-05-01T05:10:03.385Z,6.03
2023-05-01T05:12:38.956Z,5.15
2023-05-01T05:15:10.598Z,5.38
2023-05-01T05:17:39.199Z,3.70
2023-05-01T05:20:09.513Z,3.55
2023-05-01T05:22:38.879Z,3.03
2023-05-01T05:25:23.934Z,5.40
2023-05-01T05:27:52.766Z,4.80
2023-05-01T05:30:22.696Z,4.05
2023-05-01T05:32:51.562Z,7.23
2023-05-01T05:35:22.242Z,3.30
2023-05-01T05:37:51.809Z,2.97
2023-05-01T05:40:20.814Z,4.10
2023-05-01T05:42:58.473Z,4.22
2023-05-01T05:45:31.518Z,5.13
2023-05-01T05:48:00.297Z,5.40
2023-05-01T05:50:30.727Z,3.67
2023-05-01T05:53:00.301Z,6.70
2023-05-01T05:55:29.437Z,5.38
2023-05-01T05:58:03.498Z,4.70
2023-05-01T06:00:34.110Z,6.22
2023-05-01T06:03:07.337Z,4.72
2023-05-01T06:05:37.453Z,2.95
2023-05-01T06:08:06.690Z,5.13
2023-05-01T06:10:35.356Z,4.80
2023-05-01T06:13:03.836Z,4.00
2023-05-01T06:15:38.063Z,1.90
2023-05-01T06:18:07.262Z,4.15
2023-05-01T06:20:36.385Z,7.75
2023-05-01T06:23:08.679Z,1.88
2023-05-01T06:25:50.349Z,1.80
2023-05-01T06:28:18.921Z,6.07
2023-05-01T06:30:49.698Z,2.58
2023-05-01T06:33:20.480Z,4.53
2023-05-01T06:36:00.100Z,4.05
2023-05-01T06:38:28.955Z,4.32
2023-05-01T06:40:58.049Z,2.53
2023-05-01T06:43:30.668Z,2.55
2023-05-01T06:46:00.829Z,3.13
2023-05-01T06:48:29.408Z,4.05
2023-05-01T06:50:58.109Z,1.80
2023-05-01T06:53:26.502Z,1.20
2023-05-01T06:55:55.166Z,2.63
2023-05-01T06:58:24.562Z,2.80
2023-05-01T07:00:55.158Z,3.13
2023-05-01T07:03:27.872Z,2.65
2023-05-01T07:05:56.905Z,2.25
2023-05-01T07:08:25.708Z,2.92
2023-05-01T07:10:54.366Z,2.70
2023-05-01T07:13:23.059Z,2.13
2023-05-01T07:15:53.792Z,1.60
2023-05-01T07:18:24.663Z,3.20
2023-05-01T07:20:53.124Z,2.95
2023-05-01T07:23:23.765Z,2.30
2023-05-01T07:25:52.433Z,6.53
2023-05-01T07:28:22.067Z,1.80
2023-05-01T07:30:50.902Z,1.92
2023-05-01T07:33:19.502Z,1.33
2023-05-01T07:35:49.789Z,2.30
2023-05-01T07:38:18.660Z,0.80
2023-05-01T07:40:47.399Z,1.05
2023-05-01T07:43:16.122Z,1.05
2023-05-01T07:45:56.850Z,1.35
2023-05-01T07:48:25.689Z,1.15
2023-05-01T07:50:56.821Z,1.95
2023-05-01T07:53:25.684Z,2.53
2023-05-01T07:55:54.194Z,7.55
2023-05-01T07:58:22.724Z,1.60
2023-05-01T08:00:51.285Z,2.50
2023-05-01T08:03:20.066Z,1.35
2023-05-01T08:05:48.763Z,2.50
2023-05-01T08:08:21.541Z,2.75
2023-05-01T08:10:50.297Z,2.78
2023-05-01T08:13:18.778Z,1.15
2023-05-01T08:15:48.188Z,1.40
2023-05-01T08:18:21.252Z,1.10
2023-05-01T08:20:50.701Z,1.50
2023-05-01T08:23:20.873Z,6.95
2023-05-01T08:25:51.797Z,1.17
2023-05-01T08:28:21.614Z,1.80
2023-05-01T08:30:50.717Z,2.47
2023-05-01T08:33:19.706Z,1.77
2023-05-01T08:35:48.726Z,0.80
2023-05-01T08:38:17.482Z,0.80
2023-05-01T08:40:53.829Z,0.80
2023-05-01T08:43:22.940Z,0.57
2023-05-01T08:45:52.669Z,1.05
2023-05-01T08:48:22.446Z,1.42
2023-05-01T08:50:52.381Z,1.17
2023-05-01T08:53:23.574Z,1.48
2023-05-01T08:58:23.379Z,1.70
2023-05-01T09:00:52.445Z,2.05
2023-05-01T09:03:22.917Z,1.95
2023-05-01T09:05:52.589Z,0.85
2023-05-01T09:08:21.420Z,2.03
2023-05-01T09:10:50.858Z,3.80
2023-05-01T09:13:21.177Z,1.30
2023-05-01T09:15:50.076Z,4.07
2023-05-01T09:18:18.758Z,0.93
2023-05-01T09:20:47.465Z,1.13
2023-05-01T09:23:16.246Z,1.00
2023-05-01T09:25:45.389Z,2.17
2023-05-01T09:28:13.989Z,3.13
2023-05-01T09:30:44.266Z,1.00
2023-05-01T09:33:14.332Z,1.65
2023-05-01T09:35:57.276Z,0.45
2023-05-01T09:38:27.239Z,1.55
2023-05-01T09:40:58.526Z,11.18
2023-05-01T09:43:28.586Z,0.80
2023-05-01T09:46:07.026Z,3.30
2023-05-01T09:48:36.318Z,0.40
2023-05-01T09:51:23.152Z,2.63
2023-05-01T09:53:52.606Z,0.43
2023-05-01T09:56:22.096Z,1.15
2023-05-01T09:58:52.575Z,0.95
2023-05-01T10:01:40.012Z,0.63
2023-05-01T10:04:10.280Z,2.03
2023-05-01T10:06:39.663Z,1.00
2023-05-01T10:09:16.942Z,1.00
2023-05-01T10:11:52.750Z,2.03
2023-05-01T10:14:24.214Z,1.13
2023-05-01T10:16:54.966Z,1.08
2023-05-01T10:19:23.763Z,3.10
2023-05-01T10:21:52.920Z,2.95
2023-05-01T10:24:21.473Z,1.70
2023-05-01T10:26:50.420Z,1.30
2023-05-01T10:29:23.538Z,1.15
2023-05-01T10:31:53.636Z,0.80
2023-05-01T10:34:26.396Z,1.00
2023-05-01T10:37:00.262Z,1.27
2023-05-01T10:39:32.847Z,0.93
2023-05-01T10:42:11.533Z,2.25
2023-05-01T10:44:40.519Z,1.73
2023-05-01T10:47:47.935Z,2.08
2023-05-01T10:50:16.857Z,1.33
2023-05-01T10:53:17.709Z,1.38
2023-05-01T10:55:47.376Z,2.22
2023-05-01T10:58:52.042Z,1.65
2023-05-01T11:01:34.688Z,0.77
2023-05-01T11:04:08.453Z,0.73
2023-05-01T11:06:38.602Z,0.68
2023-05-01T11:09:38.316Z,1.33
2023-05-01T11:12:07.683Z,1.90
2023-05-01T11:15:08.481Z,1.20
2023-05-01T11:17:51.219Z,0.52
2023-05-01T11:20:50.231Z,1.00
2023-05-01T11:23:20.069Z,0.80
2023-05-01T11:25:51.088Z,1.20
2023-05-01T11:28:24.572Z,1.05
2023-05-01T11:30:53.298Z,1.42
2023-05-01T11:33:29.228Z,2.05
2023-05-01T11:36:05.384Z,0.80
2023-05-01T11:38:34.025Z,1.48
2023-05-01T11:41:04.550Z,0.95
2023-05-01T11:43:33.600Z,1.00
2023-05-01T11:46:05.143Z,2.17
2023-05-01T11:48:34.330Z,1.42
2023-05-01T11:51:13.196Z,1.02
2023-05-01T11:53:41.825Z,1.15
2023-05-01T11:56:26.443Z,1.98
2023-05-01T11:58:55.764Z,3.88
2023-05-01T12:01:34.886Z,3.47
2023-05-01T12:04:03.807Z,0.60
2023-05-01T12:06:44.112Z,0.60
2023-05-01T12:09:17.111Z,14.13
2023-05-01T12:11:46.645Z,1.45
2023-05-01T12:14:16.664Z,1.55
2023-05-01T12:16:45.874Z,5.37
2023-05-01T12:19:15.750Z,3.53
2023-05-01T12:21:45.950Z,4.00
2023-05-01T12:24:16.329Z,4.63
2023-05-01T12:26:45.683Z,1.60
2023-05-01T12:29:14.393Z,3.40
2023-05-01T12:31:48.713Z,2.45
2023-05-01T12:34:17.387Z,3.83
2023-05-01T12:36:55.195Z,1.42
2023-05-01T12:39:24.742Z,2.35
2023-05-01T12:41:54.792Z,5.35
2023-05-01T12:44:25.007Z,2.37
2023-05-01T12:47:00.759Z,3.17
2023-05-01T12:49:31.343Z,2.67
2023-05-01T12:52:03.767Z,6.13
2023-05-01T12:54:34.535Z,2.08
2023-05-01T12:57:10.907Z,2.20
2023-05-01T12:59:41.186Z,14.23
2023-05-01T13:02:12.725Z,1.07
2023-05-01T13:04:41.945Z,1.73
2023-05-01T13:07:16.249Z,2.30
2023-05-01T13:09:53.883Z,2.03
2023-05-01T13:12:23.103Z,2.50
2023-05-01T13:14:52.109Z,2.50
2023-05-01T13:17:25.819Z,1.95
2023-05-01T13:19:56.143Z,1.67
2023-05-01T13:22:36.129Z,1.75
2023-05-01T13:25:06.567Z,1.17
2023-05-01T13:27:35.159Z,2.28
2023-05-01T13:30:04.019Z,1.88
2023-05-01T13:32:33.509Z,0.85
2023-05-01T13:35:03.368Z,2.42
2023-05-01T13:37:32.665Z,1.60
2023-05-01T13:40:03.729Z,2.55
2023-05-01T13:42:33.032Z,2.65
2023-05-01T13:45:05.888Z,5.15
2023-05-01T13:47:34.687Z,2.40
2023-05-01T13:50:03.388Z,2.08
2023-05-01T13:52:32.537Z,7.53
2023-05-01T13:55:04.949Z,5.07
2023-05-01T13:57:34.403Z,6.68
2023-05-01T14:00:02.961Z,2.78
2023-05-01T14:02:45.559Z,2.33
2023-05-01T14:05:14.542Z,3.30
2023-05-01T14:07:48.801Z,6.97
2023-05-01T14:10:19.225Z,4.60
2023-05-01T14:12:47.696Z,4.38
2023-05-01T14:15:17.184Z,6.80
2023-05-01T14:17:46.817Z,5.28
2023-05-01T14:20:17.278Z,2.95
2023-05-01T14:22:47.153Z,4.07
2023-05-01T14:25:25.299Z,13.38
2023-05-01T14:27:55.207Z,4.68
2023-05-01T14:30:29.131Z,6.18
2023-05-01T14:32:58.238Z,5.78
2023-05-01T14:35:26.758Z,4.32
2023-05-01T14:37:55.280Z,2.20
2023-05-01T14:40:27.823Z,4.70
2023-05-01T14:42:56.503Z,12.50
2023-05-01T14:45:25.043Z,5.95
2023-05-01T14:47:53.762Z,6.05
2023-05-01T14:50:24.776Z,6.30
2023-05-01T14:55:28.439Z,9.40
2023-05-01T14:57:58.007Z,3.30
2023-05-01T15:00:26.931Z,13.43
2023-05-01T15:02:56.203Z,4.82
2023-05-01T15:05:26.283Z,4.28
2023-05-01T15:07:56.519Z,3.85
2023-05-01T15:10:26.874Z,6.83
2023-05-01T15:12:55.486Z,9.32
2023-05-01T15:15:24.010Z,5.85
2023-05-01T15:17:54.325Z,6.18
2023-05-01T15:20:22.898Z,4.00
2023-05-01T15:22:51.530Z,5.07
2023-05-01T15:25:20.293Z,5.85
2023-05-01T15:27:51.627Z,14.25
2023-05-01T15:30:20.463Z,6.50
2023-05-01T15:32:49.810Z,5.13
2023-05-01T15:35:19.082Z,5.97
2023-05-01T15:37:47.805Z,4.72
2023-05-01T15:40:16.522Z,6.88
2023-05-01T15:42:45.694Z,7.00
2023-05-01T15:45:16.063Z,7.18
2023-05-01T15:47:45.086Z,6.38
2023-05-01T15:50:13.865Z,7.50
2023-05-01T15:52:42.666Z,7.88
2023-05-01T15:55:11.384Z,5.95
2023-05-01T15:57:39.993Z,6.82
2023-05-01T16:00:10.747Z,6.13
2023-05-01T16:02:41.078Z,7.68
2023-05-01T16:05:10.349Z,7.05
2023-05-01T16:07:40.525Z,4.90
2023-05-01T16:10:10.730Z,8.98
2023-05-01T16:12:39.393Z,6.83
2023-05-01T16:15:08.923Z,6.03
2023-05-01T16:17:45.459Z,6.57
2023-05-01T16:20:17.296Z,6.70
2023-05-01T16:22:45.822Z,6.88
2023-05-01T16:25:15.295Z,11.40
2023-05-01T16:27:46.363Z,4.10
2023-05-01T16:32:46.367Z,6.28
2023-05-01T16:35:18.742Z,8.73
2023-05-01T16:37:47.380Z,8.52
2023-05-01T16:40:18.363Z,6.30
2023-05-01T16:45:19.880Z,5.47
2023-05-01T16:47:50.009Z,7.82
2023-05-01T16:50:19.025Z,5.40
2023-05-01T16:52:47.489Z,5.85
2023-05-01T16:55:16.308Z,5.25
2023-05-01T16:57:45.167Z,9.02
2023-05-01T17:00:15.346Z,7.38
2023-05-01T17:02:45.062Z,6.95
2023-05-01T17:05:15.172Z,7.25
2023-05-01T17:07:43.814Z,5.80
2023-05-01T17:10:12.791Z,5.22
2023-05-01T17:12:41.524Z,4.80
2023-05-01T17:15:11.078Z,6.28
2023-05-01T17:17:39.642Z,6.88
2023-05-01T17:20:09.557Z,7.90
2023-05-01T17:22:39.526Z,6.80
2023-05-01T17:25:09.576Z,5.70
2023-05-01T17:27:39.059Z,6.57
2023-05-01T17:30:08.995Z,4.78
2023-05-01T17:32:37.941Z,6.70
2023-05-01T17:35:07.559Z,11.63
2023-05-01T17:37:39.971Z,9.88
2023-05-01T17:40:12.472Z,5.72
2023-05-01T17:42:42.050Z,6.30
2023-05-01T17:45:11.470Z,9.07
2023-05-01T17:47:45.278Z,8.93
2023-05-01T17:50:15.141Z,7.53
2023-05-01T17:52:45.484Z,5.55
2023-05-01T17:55:18.021Z,4.32
2023-05-01T17:57:47.791Z,6.50
2023-05-01T18:00:17.154Z,8.40
2023-05-01T18:02:47.768Z,7.20
2023-05-01T18:07:48.432Z,8.25
2023-05-01T18:10:18.369Z,9.95
2023-05-01T18:12:50.112Z,6.07
2023-05-01T18:15:22.919Z,6.43
2023-05-01T18:17:51.682Z,6.40
2023-05-01T18:20:20.379Z,5.53
2023-05-01T18:22:48.877Z,8.98
2023-05-01T18:25:20.248Z,9.65
2023-05-01T18:27:49.373Z,3.55
2023-05-01T18:30:18.277Z,8.27
2023-05-01T18:32:48.688Z,7.68
2023-05-01T18:35:19.146Z,5.13
2023-05-01T18:37:47.974Z,8.57
2023-05-01T18:40:16.644Z,6.63
2023-05-01T18:42:46.705Z,6.55
2023-05-01T18:45:15.248Z,5.00
2023-05-01T18:47:43.867Z,5.35
2023-05-01T18:50:13.339Z,5.82
2023-05-01T18:52:43.160Z,8.50
2023-05-01T18:55:12.484Z,8.15
2023-05-01T18:57:43.989Z,7.07
2023-05-01T19:00:16.852Z,5.07
2023-05-01T19:02:51.835Z,3.42
2023-05-01T19:18:20.289Z,8.80
2023-05-01T19:20:49.007Z,5.63
2023-05-01T19:23:17.608Z,12.55
2023-05-01T19:25:46.170Z,3.92
2023-05-01T19:28:17.430Z,8.18
2023-05-01T19:30:46.100Z,5.53
2023-05-01T19:33:14.666Z,4.13
2023-05-01T19:35:45.035Z,11.07
2023-05-01T19:38:13.686Z,5.43
2023-05-01T19:40:42.586Z,6.30
2023-05-01T19:43:11.246Z,6.90
2023-05-01T19:45:39.796Z,6.20
2023-05-01T19:48:08.697Z,6.65
2023-05-01T19:50:37.362Z,5.63
2023-05-01T19:53:07.550Z,6.22
2023-05-01T19:55:36.015Z,12.83
2023-05-01T19:58:05.752Z,6.60
2023-05-01T20:00:34.343Z,6.00
2023-05-01T20:03:03.089Z,10.68
2023-05-01T20:05:33.294Z,6.55
2023-05-01T20:08:02.258Z,4.47
2023-05-01T20:10:32.494Z,5.55
2023-05-01T20:13:01.950Z,8.13
2023-05-01T20:15:30.520Z,14.48
2023-05-01T20:17:59.080Z,41.80
2023-05-01T20:20:27.741Z,14.00
2023-05-01T20:23:10.753Z,5.43
2023-05-01T20:25:41.121Z,6.53
2023-05-01T20:28:10.566Z,6.43
2023-05-01T20:30:40.502Z,6.20
2023-05-01T20:33:09.471Z,3.40
2023-05-01T20:35:38.820Z,4.25
2023-05-01T20:38:07.674Z,9.35
2023-05-01T20:40:40.350Z,5.22
2023-05-01T20:43:11.502Z,4.25
2023-05-01T20:48:08.730Z,5.07
2023-05-01T20:50:37.462Z,4.80
2023-05-01T20:53:06.132Z,5.07
2023-05-01T20:55:34.809Z,4.57
2023-05-01T20:58:04.937Z,5.82
2023-05-01T21:00:35.195Z,9.63
2023-05-01T21:03:03.969Z,7.70
2023-05-01T21:05:32.684Z,7.50
2023-05-01T21:08:01.342Z,4.03
2023-05-01T21:10:29.785Z,6.45
2023-05-01T21:12:58.780Z,4.22
2023-05-01T21:15:27.748Z,4.05
2023-05-01T21:17:58.004Z,4.05
2023-05-01T21:20:34.649Z,5.57
2023-05-01T21:23:04.705Z,5.75
2023-05-01T21:25:33.361Z,5.47
2023-05-01T21:28:03.771Z,31.00
2023-05-01T21:30:34.439Z,16.98
2023-05-01T21:33:07.178Z,9.82
2023-05-01T21:35:36.065Z,6.88
2023-05-01T21:38:05.654Z,17.33
2023-05-01T21:40:38.444Z,9.43
2023-05-01T21:43:07.878Z,6.43
2023-05-01T21:45:40.646Z,4.85
2023-05-01T21:48:11.501Z,5.70
2023-05-01T21:50:40.220Z,9.77
2023-05-01T21:53:08.951Z,7.68
2023-05-01T21:55:37.859Z,6.90
2023-05-01T21:58:06.501Z,7.15
2023-05-01T22:00:35.346Z,5.72
2023-05-01T22:03:08.545Z,3.33
2023-05-01T22:05:41.191Z,5.93
2023-05-01T22:08:09.777Z,6.82
2023-05-01T22:10:38.382Z,6.10
2023-05-01T22:13:07.155Z,4.82
2023-05-01T22:15:35.820Z,5.70
2023-05-01T22:18:05.141Z,5.70
2023-05-01T22:20:33.676Z,5.55
2023-05-01T22:23:03.785Z,5.22
2023-05-01T22:25:32.319Z,6.47
2023-05-01T22:28:01.510Z,23.88
2023-05-01T22:30:30.294Z,11.40
2023-05-01T22:32:58.933Z,7.35
2023-05-01T22:35:27.440Z,6.00
2023-05-01T22:37:56.034Z,6.60
2023-05-01T22:40:26.473Z,6.65
2023-05-01T22:42:55.014Z,5.72
2023-05-01T22:45:23.487Z,5.95
2023-05-01T22:47:52.059Z,12.73
2023-05-01T22:50:20.550Z,5.88
2023-05-01T22:52:49.135Z,5.57
2023-05-01T22:55:17.894Z,9.15
2023-05-01T22:57:48.019Z,6.07
2023-05-01T23:00:17.068Z,8.93
2023-05-01T23:02:45.654Z,11.95
2023-05-01T23:05:14.254Z,49.08
2023-05-01T23:07:42.903Z,51.85
2023-05-01T23:10:12.536Z,83.55
2023-05-01T23:12:43.635Z,68.53
2023-05-01T23:17:45.913Z,74.55
2023-05-01T23:20:19.421Z,76.20
2023-05-01T23:22:48.826Z,70.90
2023-05-01T23:25:23.068Z,81.40
2023-05-01T23:27:53.320Z,44.47
2023-05-01T23:30:24.347Z,31.92
2023-05-01T23:32:53.181Z,66.15
2023-05-01T23:35:24.516Z,81.07
2023-05-01T23:37:54.094Z,67.78
2023-05-01T23:40:22.706Z,84.45
2023-05-01T23:42:51.473Z,69.80
2023-05-01T23:45:20.221Z,50.45
2023-05-01T23:47:50.244Z,38.72
2023-05-01T23:50:19.050Z,34.65
2023-05-01T23:52:47.792Z,61.35
2023-05-01T23:55:16.241Z,59.15
2023-05-01T23:57:45.115Z,36.90
